sensor_id;sensor_type;location;lat;lon;timestamp;pressure;altitude;pressure_sealevel;temperature;humidity
72210;BME280;60113;48.762;12.302;2024-02-14T00:01:24;97714.38;;;-3.02;97.30
72210;BME280;60113;48.762;12.302;2024-02-14T00:03:49;97721.28;;;-3.05;96.92
72210;BME280;60113;48.762;12.302;2024-02-14T00:06:15;97719.63;;;-3.09;96.48
72210;BME280;60113;48.762;12.302;2024-02-14T00:08:40;97717.94;;;-3.10;97.59
72210;BME280;60113;48.762;12.302;2024-02-14T00:11:06;97711.09;;;-3.13;98.51
72210;BME280;60113;48.762;12.302;2024-02-14T00:13:31;97724.81;;;-3.12;98.85
72210;BME280;60113;48.762;12.302;2024-02-14T00:16:00;97723.91;;;-3.10;99.19
72210;BME280;60113;48.762;12.302;2024-02-14T00:18:25;97723.06;;;-3.09;99.45
72210;BME280;60113;48.762;12.302;2024-02-14T00:20:51;97725.63;;;-3.07;98.58
72210;BME280;60113;48.762;12.302;2024-02-14T00:23:16;97724.72;;;-3.05;98.50
72210;BME280;60113;48.762;12.302;2024-02-14T00:25:41;97724.69;;;-3.03;99.53
72210;BME280;60113;48.762;12.302;2024-02-14T00:28:07;97731.53;;;-3.02;98.85
72210;BME280;60113;48.762;12.302;2024-02-14T00:30:32;97725.53;;;-3.01;98.65
72210;BME280;60113;48.762;12.302;2024-02-14T00:32:58;97727.25;;;-3.02;97.77
72210;BME280;60113;48.762;12.302;2024-02-14T00:35:24;97723.81;;;-3.04;97.34
72210;BME280;60113;48.762;12.302;2024-02-14T00:37:49;97732.44;;;-3.05;99.76
72210;BME280;60113;48.762;12.302;2024-02-14T00:40:15;97733.31;;;-3.07;99.69
72210;BME280;60113;48.762;12.302;2024-02-14T00:42:40;97740.19;;;-3.08;100.00
72210;BME280;60113;48.762;12.302;2024-02-14T00:45:06;97730.75;;;-3.07;100.00
72210;BME280;60113;48.762;12.302;2024-02-14T00:47:34;97741.03;;;-3.06;99.88
72210;BME280;60113;48.762;12.302;2024-02-14T00:50:00;97735.91;;;-3.07;99.99
72210;BME280;60113;48.762;12.302;2024-02-14T00:52:25;97734.19;;;-3.08;99.75
72210;BME280;60113;48.762;12.302;2024-02-14T00:54:50;97738.50;;;-3.10;99.75
72210;BME280;60113;48.762;12.302;2024-02-14T00:57:16;97730.78;;;-3.10;99.15
72210;BME280;60113;48.762;12.302;2024-02-14T00:59:43;97739.38;;;-3.13;98.63
72210;BME280;60113;48.762;12.302;2024-02-14T01:02:08;97735.13;;;-3.14;99.62
72210;BME280;60113;48.762;12.302;2024-02-14T01:04:33;97737.66;;;-3.11;100.00
72210;BME280;60113;48.762;12.302;2024-02-14T01:07:02;97739.34;;;-3.10;100.00
72210;BME280;60113;48.762;12.302;2024-02-14T01:09:28;97738.47;;;-3.07;100.00
72210;BME280;60113;48.762;12.302;2024-02-14T01:11:56;97738.44;;;-3.04;100.00
72210;BME280;60113;48.762;12.302;2024-02-14T01:14:21;97733.25;;;-3.03;100.00
72210;BME280;60113;48.762;12.302;2024-02-14T01:16:47;97732.41;;;-3.03;100.00
72210;BME280;60113;48.762;12.302;2024-02-14T01:19:13;97733.22;;;-2.98;100.00
72210;BME280;60113;48.762;12.302;2024-02-14T01:21:39;97728.81;;;-2.91;100.00
72210;BME280;60113;48.762;12.302;2024-02-14T01:24:05;97727.00;;;-2.83;100.00
72210;BME280;60113;48.762;12.302;2024-02-14T01:26:31;97729.47;;;-2.77;100.00
72210;BME280;60113;48.762;12.302;2024-02-14T01:28:58;97727.75;;;-2.74;100.00
72210;BME280;60113;48.762;12.302;2024-02-14T01:31:26;97723.38;;;-2.71;100.00
72210;BME280;60113;48.762;12.302;2024-02-14T01:33:53;97721.72;;;-2.73;100.00
72210;BME280;60113;48.762;12.302;2024-02-14T01:36:18;97723.41;;;-2.74;100.00
72210;BME280;60113;48.762;12.302;2024-02-14T01:38:44;97723.44;;;-2.76;100.00
72210;BME280;60113;48.762;12.302;2024-02-14T01:41:10;97720.84;;;-2.74;100.00
72210;BME280;60113;48.762;12.302;2024-02-14T01:43:36;97722.56;;;-2.73;100.00
72210;BME280;60113;48.762;12.302;2024-02-14T01:46:05;97730.25;;;-2.70;100.00
72210;BME280;60113;48.762;12.302;2024-02-14T01:48:31;97722.44;;;-2.65;100.00
72210;BME280;60113;48.762;12.302;2024-02-14T01:50:57;97725.81;;;-2.61;100.00
72210;BME280;60113;48.762;12.302;2024-02-14T01:53:25;97725.78;;;-2.58;100.00
72210;BME280;60113;48.762;12.302;2024-02-14T01:55:51;97731.69;;;-2.53;100.00
72210;BME280;60113;48.762;12.302;2024-02-14T01:58:17;97723.03;;;-2.47;100.00
72210;BME280;60113;48.762;12.302;2024-02-14T02:00:43;97722.91;;;-2.40;100.00
72210;BME280;60113;48.762;12.302;2024-02-14T02:03:10;97724.44;;;-2.29;100.00
72210;BME280;60113;48.762;12.302;2024-02-14T02:05:36;97723.47;;;-2.20;100.00
72210;BME280;60113;48.762;12.302;2024-02-14T02:08:01;97719.91;;;-2.13;100.00
72210;BME280;60113;48.762;12.302;2024-02-14T02:10:27;97724.09;;;-2.07;100.00
72210;BME280;60113;48.762;12.302;2024-02-14T02:12:59;97725.72;;;-2.02;100.00
72210;BME280;60113;48.762;12.302;2024-02-14T02:15:27;97730.75;;;-1.97;100.00
72210;BME280;60113;48.762;12.302;2024-02-14T02:17:54;97727.25;;;-1.91;100.00
72210;BME280;60113;48.762;12.302;2024-02-14T02:20:19;97723.72;;;-1.87;100.00
72210;BME280;60113;48.762;12.302;2024-02-14T02:22:48;97723.66;;;-1.82;100.00
72210;BME280;60113;48.762;12.302;2024-02-14T02:25:14;97732.16;;;-1.77;100.00
72210;BME280;60113;48.762;12.302;2024-02-14T02:27:39;97732.94;;;-1.73;100.00
72210;BME280;60113;48.762;12.302;2024-02-14T02:30:06;97720.84;;;-1.70;100.00
72210;BME280;60113;48.762;12.302;2024-02-14T02:32:32;97730.19;;;-1.64;100.00
72210;BME280;60113;48.762;12.302;2024-02-14T02:34:57;97731.84;;;-1.60;100.00
72210;BME280;60113;48.762;12.302;2024-02-14T02:37:24;97725.75;;;-1.56;100.00
72210;BME280;60113;48.762;12.302;2024-02-14T02:39:49;97723.97;;;-1.52;100.00
72210;BME280;60113;48.762;12.302;2024-02-14T02:42:16;97722.19;;;-1.50;100.00
72210;BME280;60113;48.762;12.302;2024-02-14T02:44:46;97729.84;;;-1.47;100.00
72210;BME280;60113;48.762;12.302;2024-02-14T02:47:11;97722.09;;;-1.45;100.00
72210;BME280;60113;48.762;12.302;2024-02-14T02:49:38;97722.91;;;-1.43;100.00
72210;BME280;60113;48.762;12.302;2024-02-14T02:52:03;97716.00;;;-1.41;100.00
72210;BME280;60113;48.762;12.302;2024-02-14T02:54:28;97717.66;;;-1.37;100.00
72210;BME280;60113;48.762;12.302;2024-02-14T02:56:54;97718.38;;;-1.32;100.00
72210;BME280;60113;48.762;12.302;2024-02-14T02:59:19;97722.72;;;-1.32;100.00
72210;BME280;60113;48.762;12.302;2024-02-14T03:01:45;97715.03;;;-1.35;100.00
72210;BME280;60113;48.762;12.302;2024-02-14T03:04:10;97716.81;;;-1.39;100.00
72210;BME280;60113;48.762;12.302;2024-02-14T03:06:35;97718.66;;;-1.44;100.00
72210;BME280;60113;48.762;12.302;2024-02-14T03:09:02;97720.47;;;-1.49;100.00
72210;BME280;60113;48.762;12.302;2024-02-14T03:11:27;97721.41;;;-1.54;100.00
72210;BME280;60113;48.762;12.302;2024-02-14T03:13:52;97718.91;;;-1.57;100.00
72210;BME280;60113;48.762;12.302;2024-02-14T03:16:18;97723.25;;;-1.60;100.00
72210;BME280;60113;48.762;12.302;2024-02-14T03:18:44;97724.19;;;-1.65;100.00
72210;BME280;60113;48.762;12.302;2024-02-14T03:21:09;97726.84;;;-1.69;100.00
72210;BME280;60113;48.762;12.302;2024-02-14T03:23:35;97726.13;;;-1.76;100.00
72210;BME280;60113;48.762;12.302;2024-02-14T03:26:00;97729.63;;;-1.80;100.00
72210;BME280;60113;48.762;12.302;2024-02-14T03:28:25;97732.25;;;-1.83;100.00
72210;BME280;60113;48.762;12.302;2024-02-14T03:30:52;97729.78;;;-1.88;100.00
72210;BME280;60113;48.762;12.302;2024-02-14T03:33:18;97729.00;;;-1.93;100.00
72210;BME280;60113;48.762;12.302;2024-02-14T03:35:45;97729.03;;;-1.95;100.00
72210;BME280;60113;48.762;12.302;2024-02-14T03:38:10;97733.38;;;-1.98;100.00
72210;BME280;60113;48.762;12.302;2024-02-14T03:40:36;97736.09;;;-2.05;100.00
72210;BME280;60113;48.762;12.302;2024-02-14T03:43:03;97733.59;;;-2.09;100.00
72210;BME280;60113;48.762;12.302;2024-02-14T03:45:29;97732.75;;;-2.11;100.00
72210;BME280;60113;48.762;12.302;2024-02-14T03:47:55;97737.09;;;-2.15;100.00
72210;BME280;60113;48.762;12.302;2024-02-14T03:50:22;97732.88;;;-2.19;100.00
72210;BME280;60113;48.762;12.302;2024-02-14T03:52:47;97726.09;;;-2.23;100.00
72210;BME280;60113;48.762;12.302;2024-02-14T03:55:15;97733.00;;;-2.27;100.00
72210;BME280;60113;48.762;12.302;2024-02-14T03:57:43;97728.81;;;-2.33;100.00
72210;BME280;60113;48.762;12.302;2024-02-14T04:00:11;97734.88;;;-2.37;100.00
72210;BME280;60113;48.762;12.302;2024-02-14T04:02:37;97740.09;;;-2.42;100.00
72210;BME280;60113;48.762;12.302;2024-02-14T04:05:03;97734.16;;;-2.45;100.00
72210;BME280;60113;48.762;12.302;2024-02-14T04:07:29;97746.13;;;-2.43;100.00
72210;BME280;60113;48.762;12.302;2024-02-14T04:09:55;97748.69;;;-2.43;100.00
72210;BME280;60113;48.762;12.302;2024-02-14T04:12:20;97736.72;;;-2.44;100.00
72210;BME280;60113;48.762;12.302;2024-02-14T04:14:46;97733.31;;;-2.47;100.00
72210;BME280;60113;48.762;12.302;2024-02-14T04:17:11;97726.47;;;-2.47;100.00
72210;BME280;60113;48.762;12.302;2024-02-14T04:19:37;97734.19;;;-2.47;100.00
72210;BME280;60113;48.762;12.302;2024-02-14T04:22:03;97727.28;;;-2.46;100.00
72210;BME280;60113;48.762;12.302;2024-02-14T04:24:29;97722.16;;;-2.48;100.00
72210;BME280;60113;48.762;12.302;2024-02-14T04:26:54;97725.59;;;-2.47;100.00
72210;BME280;60113;48.762;12.302;2024-02-14T04:29:21;97740.22;;;-2.51;100.00
72210;BME280;60113;48.762;12.302;2024-02-14T04:31:47;97731.69;;;-2.53;100.00
72210;BME280;60113;48.762;12.302;2024-02-14T04:34:12;97737.69;;;-2.54;100.00
72210;BME280;60113;48.762;12.302;2024-02-14T04:36:39;97739.44;;;-2.55;100.00
72210;BME280;60113;48.762;12.302;2024-02-14T04:39:05;97740.31;;;-2.56;100.00
72210;BME280;60113;48.762;12.302;2024-02-14T04:41:31;97742.91;;;-2.59;100.00
72210;BME280;60113;48.762;12.302;2024-02-14T04:43:57;97742.13;;;-2.61;100.00
72210;BME280;60113;48.762;12.302;2024-02-14T04:46:22;97751.59;;;-2.66;100.00
72210;BME280;60113;48.762;12.302;2024-02-14T04:48:48;97750.00;;;-2.72;100.00
72210;BME280;60113;48.762;12.302;2024-02-14T04:51:13;97758.63;;;-2.76;100.00
72210;BME280;60113;48.762;12.302;2024-02-14T04:53:39;97762.00;;;-2.74;100.00
72210;BME280;60113;48.762;12.302;2024-02-14T04:56:04;97762.03;;;-2.76;100.00
72210;BME280;60113;48.762;12.302;2024-02-14T04:58:30;97756.06;;;-2.76;100.00
72210;BME280;60113;48.762;12.302;2024-02-14T05:00:55;97752.63;;;-2.77;100.00
72210;BME280;60113;48.762;12.302;2024-02-14T05:03:21;97747.47;;;-2.75;100.00
72210;BME280;60113;48.762;12.302;2024-02-14T05:05:50;97750.84;;;-2.71;100.00
72210;BME280;60113;48.762;12.302;2024-02-14T05:08:15;97744.78;;;-2.67;100.00
72210;BME280;60113;48.762;12.302;2024-02-14T05:10:41;97751.53;;;-2.60;100.00
72210;BME280;60113;48.762;12.302;2024-02-14T05:13:06;97745.41;;;-2.53;100.00
72210;BME280;60113;48.762;12.302;2024-02-14T05:15:33;97742.78;;;-2.49;100.00
72210;BME280;60113;48.762;12.302;2024-02-14T05:18:00;97747.03;;;-2.45;100.00
72210;BME280;60113;48.762;12.302;2024-02-14T05:20:25;97754.66;;;-2.39;100.00
72210;BME280;60113;48.762;12.302;2024-02-14T05:22:51;97755.38;;;-2.32;100.00
72210;BME280;60113;48.762;12.302;2024-02-14T05:25:16;97757.06;;;-2.28;100.00
72210;BME280;60113;48.762;12.302;2024-02-14T05:27:44;97751.03;;;-2.27;100.00
72210;BME280;60113;48.762;12.302;2024-02-14T05:30:12;97759.63;;;-2.27;100.00
72210;BME280;60113;48.762;12.302;2024-02-14T05:32:37;97762.16;;;-2.25;100.00
72210;BME280;60113;48.762;12.302;2024-02-14T05:35:05;97760.38;;;-2.23;100.00
72210;BME280;60113;48.762;12.302;2024-02-14T05:37:31;97763.81;;;-2.22;100.00
72210;BME280;60113;48.762;12.302;2024-02-14T05:39:57;97762.13;;;-2.23;100.00
72210;BME280;60113;48.762;12.302;2024-02-14T05:42:22;97764.72;;;-2.23;100.00
72210;BME280;60113;48.762;12.302;2024-02-14T05:44:48;97755.25;;;-2.23;100.00
72210;BME280;60113;48.762;12.302;2024-02-14T05:47:14;97760.34;;;-2.20;100.00
72210;BME280;60113;48.762;12.302;2024-02-14T05:49:40;97756.78;;;-2.11;100.00
72210;BME280;60113;48.762;12.302;2024-02-14T05:52:06;97753.31;;;-2.08;100.00
72210;BME280;60113;48.762;12.302;2024-02-14T05:54:32;97754.16;;;-2.08;100.00
72210;BME280;60113;48.762;12.302;2024-02-14T05:56:57;97753.25;;;-2.05;100.00
72210;BME280;60113;48.762;12.302;2024-02-14T05:59:23;97754.09;;;-2.03;100.00
72210;BME280;60113;48.762;12.302;2024-02-14T06:01:48;97755.75;;;-2.01;100.00
72210;BME280;60113;48.762;12.302;2024-02-14T06:04:14;97744.59;;;-2.01;100.00
72210;BME280;60113;48.762;12.302;2024-02-14T06:06:39;97745.47;;;-2.02;100.00
72210;BME280;60113;48.762;12.302;2024-02-14T06:09:05;97750.59;;;-2.01;100.00
72210;BME280;60113;48.762;12.302;2024-02-14T06:11:36;97745.41;;;-1.99;100.00
72210;BME280;60113;48.762;12.302;2024-02-14T06:14:04;97752.22;;;-1.96;100.00
72210;BME280;60113;48.762;12.302;2024-02-14T06:16:30;97751.28;;;-1.92;100.00
72210;BME280;60113;48.762;12.302;2024-02-14T06:18:55;97749.56;;;-1.90;100.00
72210;BME280;60113;48.762;12.302;2024-02-14T06:21:21;97756.34;;;-1.86;100.00
72210;BME280;60113;48.762;12.302;2024-02-14T06:23:46;97747.63;;;-1.77;100.00
72210;BME280;60113;48.762;12.302;2024-02-14T06:26:12;97745.69;;;-1.67;100.00
72210;BME280;60113;48.762;12.302;2024-02-14T06:28:37;97742.06;;;-1.55;100.00
72210;BME280;60113;48.762;12.302;2024-02-14T06:31:03;97747.81;;;-1.42;100.00
72210;BME280;60113;48.762;12.302;2024-02-14T06:33:28;97765.63;;;-1.30;100.00
72210;BME280;60113;48.762;12.302;2024-02-14T06:35:54;97768.03;;;-1.20;100.00
72210;BME280;60113;48.762;12.302;2024-02-14T06:38:19;97778.13;;;-1.09;100.00
72210;BME280;60113;48.762;12.302;2024-02-14T06:40:46;97785.63;;;-0.98;100.00
72210;BME280;60113;48.762;12.302;2024-02-14T06:43:11;97788.97;;;-0.92;100.00
72210;BME280;60113;48.762;12.302;2024-02-14T06:45:37;97799.13;;;-0.84;100.00
72210;BME280;60113;48.762;12.302;2024-02-14T06:48:03;97799.81;;;-0.77;100.00
72210;BME280;60113;48.762;12.302;2024-02-14T06:50:29;97807.47;;;-0.72;100.00
72210;BME280;60113;48.762;12.302;2024-02-14T06:52:54;97802.25;;;-0.71;100.00
72210;BME280;60113;48.762;12.302;2024-02-14T06:55:25;97803.06;;;-0.67;100.00
72210;BME280;60113;48.762;12.302;2024-02-14T06:57:50;97804.72;;;-0.65;100.00
72210;BME280;60113;48.762;12.302;2024-02-14T07:00:16;97813.25;;;-0.61;100.00
72210;BME280;60113;48.762;12.302;2024-02-14T07:02:42;97817.47;;;-0.57;100.00
72210;BME280;60113;48.762;12.302;2024-02-14T07:05:08;97818.38;;;-0.59;100.00
72210;BME280;60113;48.762;12.302;2024-02-14T07:07:38;97826.22;;;-0.64;100.00
72210;BME280;60113;48.762;12.302;2024-02-14T07:10:04;97820.28;;;-0.68;100.00
72210;BME280;60113;48.762;12.302;2024-02-14T07:12:31;97817.81;;;-0.74;100.00
72210;BME280;60113;48.762;12.302;2024-02-14T07:14:57;97821.28;;;-0.75;100.00
72210;BME280;60113;48.762;12.302;2024-02-14T07:17:23;97826.41;;;-0.73;100.00
72210;BME280;60113;48.762;12.302;2024-02-14T07:19:48;97824.66;;;-0.71;100.00
72210;BME280;60113;48.762;12.302;2024-02-14T07:22:17;97823.72;;;-0.67;100.00
72210;BME280;60113;48.762;12.302;2024-02-14T07:24:46;97812.44;;;-0.63;100.00
72210;BME280;60113;48.762;12.302;2024-02-14T07:27:12;97814.00;;;-0.57;100.00
72210;BME280;60113;48.762;12.302;2024-02-14T07:29:38;97811.28;;;-0.51;100.00
72210;BME280;60113;48.762;12.302;2024-02-14T07:32:03;97813.78;;;-0.46;100.00
72210;BME280;60113;48.762;12.302;2024-02-14T07:34:29;97817.97;;;-0.41;100.00
72210;BME280;60113;48.762;12.302;2024-02-14T07:36:54;97826.41;;;-0.34;100.00
72210;BME280;60113;48.762;12.302;2024-02-14T07:39:19;97819.47;;;-0.30;100.00
72210;BME280;60113;48.762;12.302;2024-02-14T07:41:45;97821.06;;;-0.26;100.00
72210;BME280;60113;48.762;12.302;2024-02-14T07:44:10;97817.56;;;-0.22;100.00
72210;BME280;60113;48.762;12.302;2024-02-14T07:46:36;97820.03;;;-0.17;100.00
72210;BME280;60113;48.762;12.302;2024-02-14T07:49:01;97820.78;;;-0.14;100.00
72210;BME280;60113;48.762;12.302;2024-02-14T07:51:26;97825.03;;;-0.09;100.00
72210;BME280;60113;48.762;12.302;2024-02-14T07:53:54;97830.91;;;-0.04;100.00
72210;BME280;60113;48.762;12.302;2024-02-14T07:56:19;97835.97;;;0.01;100.00
72210;BME280;60113;48.762;12.302;2024-02-14T07:58:45;97833.31;;;0.04;100.00
72210;BME280;60113;48.762;12.302;2024-02-14T08:01:10;97838.38;;;0.08;100.00
72210;BME280;60113;48.762;12.302;2024-02-14T08:03:36;97843.44;;;0.13;100.00
72210;BME280;60113;48.762;12.302;2024-02-14T08:06:01;97848.44;;;0.19;100.00
72210;BME280;60113;48.762;12.302;2024-02-14T08:08:27;97834.56;;;0.23;100.00
72210;BME280;60113;48.762;12.302;2024-02-14T08:10:52;97847.34;;;0.30;100.00
72210;BME280;60113;48.762;12.302;2024-02-14T08:13:18;97845.44;;;0.36;100.00
72210;BME280;60113;48.762;12.302;2024-02-14T08:15:43;97851.31;;;0.43;100.00
72210;BME280;60113;48.762;12.302;2024-02-14T08:18:09;97843.38;;;0.51;100.00
72210;BME280;60113;48.762;12.302;2024-02-14T08:20:34;97857.88;;;0.57;100.00
72210;BME280;60113;48.762;12.302;2024-02-14T08:22:59;97859.41;;;0.64;100.00
72210;BME280;60113;48.762;12.302;2024-02-14T08:25:25;97854.94;;;0.71;100.00
72210;BME280;60113;48.762;12.302;2024-02-14T08:27:52;97844.25;;;0.83;100.00
72210;BME280;60113;48.762;12.302;2024-02-14T08:30:17;97847.31;;;0.98;100.00
72210;BME280;60113;48.762;12.302;2024-02-14T08:32:44;97843.38;;;1.16;100.00
72210;BME280;60113;48.762;12.302;2024-02-14T08:35:10;97842.69;;;1.40;100.00
72210;BME280;60113;48.762;12.302;2024-02-14T08:37:36;97846.22;;;1.67;100.00
72210;BME280;60113;48.762;12.302;2024-02-14T08:40:04;97835.03;;;1.94;100.00
72210;BME280;60113;48.762;12.302;2024-02-14T08:42:33;97826.41;;;2.20;100.00
72210;BME280;60113;48.762;12.302;2024-02-14T08:44:59;97826.53;;;2.43;100.00
72210;BME280;60113;48.762;12.302;2024-02-14T08:47:24;97819.09;;;2.59;100.00
72210;BME280;60113;48.762;12.302;2024-02-14T08:49:50;97826.28;;;2.76;100.00
72210;BME280;60113;48.762;12.302;2024-02-14T08:52:16;97817.34;;;2.85;100.00
72210;BME280;60113;48.762;12.302;2024-02-14T08:54:42;97814.53;;;2.91;100.00
72210;BME280;60113;48.762;12.302;2024-02-14T08:57:07;97809.09;;;2.97;100.00
72210;BME280;60113;48.762;12.302;2024-02-14T08:59:33;97814.97;;;3.03;100.00
72210;BME280;60113;48.762;12.302;2024-02-14T09:01:58;97802.78;;;3.05;100.00
72210;BME280;60113;48.762;12.302;2024-02-14T09:04:24;97789.69;;;3.08;100.00
72210;BME280;60113;48.762;12.302;2024-02-14T09:06:49;97787.66;;;3.16;100.00
72210;BME280;60113;48.762;12.302;2024-02-14T09:09:15;97796.09;;;3.21;100.00
72210;BME280;60113;48.762;12.302;2024-02-14T09:11:41;97809.03;;;3.23;100.00
72210;BME280;60113;48.762;12.302;2024-02-14T09:14:06;97806.50;;;3.21;100.00
72210;BME280;60113;48.762;12.302;2024-02-14T09:16:35;97803.97;;;3.20;100.00
72210;BME280;60113;48.762;12.302;2024-02-14T09:19:00;97825.38;;;3.27;100.00
72210;BME280;60113;48.762;12.302;2024-02-14T09:21:32;97830.44;;;3.30;100.00
72210;BME280;60113;48.762;12.302;2024-02-14T09:23:59;97834.06;;;3.25;100.00
72210;BME280;60113;48.762;12.302;2024-02-14T09:26:25;97838.63;;;3.19;100.00
72210;BME280;60113;48.762;12.302;2024-02-14T09:28:51;97847.66;;;3.08;100.00
72210;BME280;60113;48.762;12.302;2024-02-14T09:31:20;97843.56;;;3.01;100.00
72210;BME280;60113;48.762;12.302;2024-02-14T09:33:48;97841.50;;;3.11;100.00
72210;BME280;60113;48.762;12.302;2024-02-14T09:36:15;97838.41;;;3.25;100.00
72210;BME280;60113;48.762;12.302;2024-02-14T09:38:41;97843.16;;;3.37;100.00
72210;BME280;60113;48.762;12.302;2024-02-14T09:41:22;97845.59;;;3.65;100.00
72210;BME280;60113;48.762;12.302;2024-02-14T09:43:51;97850.41;;;3.98;100.00
72210;BME280;60113;48.762;12.302;2024-02-14T09:46:17;97855.44;;;4.23;100.00
72210;BME280;60113;48.762;12.302;2024-02-14T09:48:44;97853.81;;;4.43;100.00
72210;BME280;60113;48.762;12.302;2024-02-14T09:51:11;97846.38;;;4.55;100.00
72210;BME280;60113;48.762;12.302;2024-02-14T09:53:40;97859.81;;;4.66;100.00
72210;BME280;60113;48.762;12.302;2024-02-14T09:56:09;97856.69;;;4.79;100.00
72210;BME280;60113;48.762;12.302;2024-02-14T09:58:35;97850.34;;;4.84;100.00
72210;BME280;60113;48.762;12.302;2024-02-14T10:01:02;97852.50;;;4.95;100.00
72210;BME280;60113;48.762;12.302;2024-02-14T10:03:27;97851.31;;;5.03;100.00
72210;BME280;60113;48.762;12.302;2024-02-14T10:05:53;97858.44;;;5.18;100.00
72210;BME280;60113;48.762;12.302;2024-02-14T10:08:18;97854.22;;;5.35;100.00
72210;BME280;60113;48.762;12.302;2024-02-14T10:10:46;97846.56;;;5.51;100.00
72210;BME280;60113;48.762;12.302;2024-02-14T10:13:11;97843.25;;;5.67;100.00
72210;BME280;60113;48.762;12.302;2024-02-14T10:15:36;97846.97;;;5.80;100.00
72210;BME280;60113;48.762;12.302;2024-02-14T10:18:02;97834.22;;;5.93;98.91
72210;BME280;60113;48.762;12.302;2024-02-14T10:20:28;97834.59;;;6.03;96.97
72210;BME280;60113;48.762;12.302;2024-02-14T10:23:02;97833.22;;;6.15;92.14
72210;BME280;60113;48.762;12.302;2024-02-14T10:25:28;97824.56;;;6.32;95.98
72210;BME280;60113;48.762;12.302;2024-02-14T10:27:54;97828.38;;;6.43;96.56
72210;BME280;60113;48.762;12.302;2024-02-14T10:30:20;97828.94;;;6.49;96.32
72210;BME280;60113;48.762;12.302;2024-02-14T10:32:47;97827.16;;;6.50;94.75
72210;BME280;60113;48.762;12.302;2024-02-14T10:35:15;97812.66;;;6.44;94.93
72210;BME280;60113;48.762;12.302;2024-02-14T10:37:42;97821.00;;;6.33;94.18
72210;BME280;60113;48.762;12.302;2024-02-14T10:40:08;97817.91;;;6.25;97.01
72210;BME280;60113;48.762;12.302;2024-02-14T10:42:36;97811.31;;;6.18;95.23
72210;BME280;60113;48.762;12.302;2024-02-14T10:45:02;97802.19;;;6.09;93.68
72210;BME280;60113;48.762;12.302;2024-02-14T10:47:34;97806.75;;;6.04;94.01
72210;BME280;60113;48.762;12.302;2024-02-14T10:50:05;97816.50;;;6.00;92.75
72210;BME280;60113;48.762;12.302;2024-02-14T10:52:35;97814.72;;;6.00;93.93
72210;BME280;60113;48.762;12.302;2024-02-14T10:55:05;97814.16;;;6.13;96.29
72210;BME280;60113;48.762;12.302;2024-02-14T10:57:34;97810.81;;;6.29;97.27
72210;BME280;60113;48.762;12.302;2024-02-14T11:00:07;97821.72;;;6.37;92.08
72210;BME280;60113;48.762;12.302;2024-02-14T11:02:35;97826.16;;;6.35;94.34
72210;BME280;60113;48.762;12.302;2024-02-14T11:05:02;97818.31;;;6.35;95.31
72210;BME280;60113;48.762;12.302;2024-02-14T11:07:28;97815.56;;;6.38;95.65
72210;BME280;60113;48.762;12.302;2024-02-14T11:10:04;97815.56;;;6.38;94.07
72210;BME280;60113;48.762;12.302;2024-02-14T11:12:35;97822.53;;;6.37;94.34
72210;BME280;60113;48.762;12.302;2024-02-14T11:15:18;97817.41;;;6.36;95.68
72210;BME280;60113;48.762;12.302;2024-02-14T11:17:44;97829.47;;;6.38;96.44
72210;BME280;60113;48.762;12.302;2024-02-14T11:20:31;97829.31;;;6.42;96.13
72210;BME280;60113;48.762;12.302;2024-02-14T11:22:57;97822.22;;;6.44;96.25
72210;BME280;60113;48.762;12.302;2024-02-14T11:25:28;97812.66;;;6.44;97.65
72210;BME280;60113;48.762;12.302;2024-02-14T11:27:55;97811.13;;;6.40;97.81
72210;BME280;60113;48.762;12.302;2024-02-14T11:30:30;97804.50;;;6.33;96.06
72210;BME280;60113;48.762;12.302;2024-02-14T11:35:47;97790.06;;;6.25;97.84
72210;BME280;60113;48.762;12.302;2024-02-14T11:38:15;97788.25;;;6.28;98.25
72210;BME280;60113;48.762;12.302;2024-02-14T11:40:41;97790.31;;;6.38;99.05
72210;BME280;60113;48.762;12.302;2024-02-14T11:43:19;97786.84;;;6.56;97.39
72210;BME280;60113;48.762;12.302;2024-02-14T11:45:46;97788.56;;;6.73;96.76
72210;BME280;60113;48.762;12.302;2024-02-14T11:48:15;97787.03;;;6.86;96.83
72210;BME280;60113;48.762;12.302;2024-02-14T11:50:42;97783.69;;;7.00;96.92
72210;BME280;60113;48.762;12.302;2024-02-14T11:53:09;97780.50;;;7.11;94.76
72210;BME280;60113;48.762;12.302;2024-02-14T11:55:37;97779.94;;;7.22;94.77
72210;BME280;60113;48.762;12.302;2024-02-14T11:58:09;97774.00;;;7.35;94.96
72210;BME280;60113;48.762;12.302;2024-02-14T12:00:40;97774.88;;;7.52;95.87
72210;BME280;60113;48.762;12.302;2024-02-14T12:03:14;97771.41;;;7.67;94.99
72210;BME280;60113;48.762;12.302;2024-02-14T12:05:40;97771.19;;;7.86;97.01
72210;BME280;60113;48.762;12.302;2024-02-14T12:08:08;97772.94;;;8.02;98.13
72210;BME280;60113;48.762;12.302;2024-02-14T12:10:35;97772.50;;;8.10;98.65
72210;BME280;60113;48.762;12.302;2024-02-14T12:13:11;97774.78;;;8.16;96.90
72210;BME280;60113;48.762;12.302;2024-02-14T12:15:41;97773.66;;;8.20;93.79
72210;BME280;60113;48.762;12.302;2024-02-14T12:18:10;97774.41;;;8.22;94.54
72210;BME280;60113;48.762;12.302;2024-02-14T12:20:37;97769.94;;;8.24;95.69
72210;BME280;60113;48.762;12.302;2024-02-14T12:23:03;97767.16;;;8.28;97.26
72210;BME280;60113;48.762;12.302;2024-02-14T12:25:32;97770.66;;;8.26;95.69
72210;BME280;60113;48.762;12.302;2024-02-14T12:27:58;97762.09;;;8.24;95.97
72210;BME280;60113;48.762;12.302;2024-02-14T12:30:44;97759.47;;;8.24;95.53
72210;BME280;60113;48.762;12.302;2024-02-14T12:33:11;97764.72;;;8.24;95.76
72210;BME280;60113;48.762;12.302;2024-02-14T12:35:37;97761.31;;;8.22;96.69
72210;BME280;60113;48.762;12.302;2024-02-14T12:38:10;97769.34;;;8.19;93.66
72210;BME280;60113;48.762;12.302;2024-02-14T12:40:36;97759.16;;;8.15;94.48
72210;BME280;60113;48.762;12.302;2024-02-14T12:43:02;97761.84;;;8.13;94.60
72210;BME280;60113;48.762;12.302;2024-02-14T12:45:28;97764.56;;;8.11;95.36